createdAt,value
2017-04-13T00:00:03.367Z,28.34
2017-04-13T00:01:03.966Z,28.34
2017-04-13T00:02:04.573Z,28.63
2017-04-13T00:03:05.169Z,28.91
2017-04-13T00:04:05.769Z,28.72
2017-04-13T00:05:06.375Z,28.81
2017-04-13T00:06:06.974Z,28.81
2017-04-13T00:07:07.574Z,28.81
2017-04-13T00:08:08.175Z,28.81
2017-04-13T00:09:08.777Z,29.01
2017-04-13T00:10:09.372Z,29.01
2017-04-13T00:11:09.973Z,28.91
2017-04-13T00:12:10.574Z,29.11
2017-04-13T00:13:11.173Z,29.01
2017-04-13T00:14:11.779Z,29.20
2017-04-13T00:15:12.376Z,29.20
2017-04-13T00:16:12.976Z,29.49
2017-04-13T00:17:13.576Z,29.30
2017-04-13T00:18:14.192Z,29.38
2017-04-13T00:19:14.801Z,29.38
2017-04-13T00:20:15.411Z,29.19
2017-04-13T00:21:16.010Z,29.19
2017-04-13T00:22:16.612Z,29.28
2017-04-13T00:23:17.212Z,29.38
2017-04-13T00:24:17.817Z,29.86
2017-04-13T00:25:18.414Z,29.86
2017-04-13T00:26:19.015Z,29.76
2017-04-13T00:27:19.620Z,29.38
2017-04-13T00:28:20.216Z,29.57
2017-04-13T00:29:20.818Z,29.76
2017-04-13T00:30:21.418Z,29.76
2017-04-13T00:31:22.023Z,29.57
2017-04-13T00:32:22.643Z,29.76
2017-04-13T00:33:23.240Z,30.05
2017-04-13T00:34:23.862Z,29.66
2017-04-13T00:35:24.457Z,29.95
2017-04-13T00:36:25.108Z,29.66
2017-04-13T00:37:25.664Z,29.95
2017-04-13T00:38:26.269Z,29.86
2017-04-13T00:39:26.861Z,29.86
2017-04-13T00:40:27.466Z,29.76
2017-04-13T00:41:28.063Z,30.24
2017-04-13T00:42:28.666Z,30.24
2017-04-13T00:43:29.264Z,30.05
2017-04-13T00:44:29.886Z,29.95
2017-04-13T00:45:30.488Z,29.94
2017-04-13T00:46:31.084Z,30.24
2017-04-13T00:47:31.683Z,30.15
2017-04-13T00:48:32.284Z,30.24
2017-04-13T00:49:32.883Z,30.43
2017-04-13T00:50:33.482Z,30.33
2017-04-13T00:51:34.089Z,30.05
2017-04-13T00:52:34.703Z,30.43
2017-04-13T00:53:35.304Z,30.15
2017-04-13T00:54:35.903Z,30.03
2017-04-13T00:55:36.508Z,30.72
2017-04-13T00:56:37.105Z,30.33
2017-04-13T00:57:37.705Z,30.32
2017-04-13T00:58:38.305Z,30.80
2017-04-13T00:59:38.904Z,31.18
2017-04-13T01:00:39.510Z,30.70
2017-04-13T01:01:40.106Z,30.70
2017-04-13T01:02:40.706Z,30.61
2017-04-13T01:03:41.306Z,30.70
2017-04-13T01:04:41.929Z,30.70
2017-04-13T01:05:42.523Z,30.80
2017-04-13T01:06:43.127Z,30.99
2017-04-13T01:07:43.729Z,30.99
2017-04-13T01:08:44.325Z,31.56
2017-04-13T01:09:44.939Z,30.99
2017-04-13T01:10:45.546Z,31.37
2017-04-13T01:11:46.143Z,31.09
2017-04-13T01:12:46.741Z,31.27
2017-04-13T01:13:47.342Z,31.56
2017-04-13T01:14:47.941Z,31.18
2017-04-13T01:15:48.548Z,31.66
2017-04-13T01:16:49.143Z,31.47
2017-04-13T01:17:49.749Z,31.47
2017-04-13T01:18:50.345Z,31.27
2017-04-13T01:19:50.944Z,31.47
2017-04-13T01:20:51.543Z,31.85
2017-04-13T01:21:52.143Z,31.56
2017-04-13T01:22:52.742Z,31.56
2017-04-13T01:23:53.341Z,31.76
2017-04-13T01:24:53.955Z,31.66
2017-04-13T01:25:54.561Z,31.76
2017-04-13T01:26:55.175Z,31.76
2017-04-13T01:27:55.776Z,31.85
2017-04-13T01:28:56.374Z,31.85
2017-04-13T01:29:56.980Z,31.85
2017-04-13T01:30:57.599Z,31.95
2017-04-13T01:31:58.195Z,31.95
2017-04-13T01:32:58.794Z,31.76
2017-04-13T01:33:59.393Z,31.85
2017-04-13T01:35:00.008Z,32.14
2017-04-13T01:36:00.627Z,31.85
2017-04-13T01:37:01.231Z,31.95
2017-04-13T01:38:01.826Z,31.85
2017-04-13T01:39:02.445Z,32.23
2017-04-13T01:40:03.044Z,32.23
2017-04-13T01:41:03.642Z,32.23
2017-04-13T01:42:04.241Z,32.04
2017-04-13T01:43:04.847Z,32.23
2017-04-13T01:44:05.449Z,32.14
2017-04-13T01:45:06.045Z,32.23
2017-04-13T01:46:06.645Z,32.14
2017-04-13T01:47:07.251Z,32.14
2017-04-13T01:48:07.855Z,32.14
2017-04-13T01:49:08.450Z,32.14
2017-04-13T01:50:09.049Z,32.23
2017-04-13T01:51:09.664Z,32.33
2017-04-13T01:52:10.266Z,32.62
2017-04-13T01:53:10.864Z,32.23
2017-04-13T01:54:11.462Z,32.14
2017-04-13T01:55:12.064Z,32.33
2017-04-13T01:56:12.675Z,32.33
2017-04-13T01:57:13.276Z,32.23
2017-04-13T01:58:13.879Z,32.41
2017-04-13T01:59:14.493Z,32.41
2017-04-13T02:00:15.093Z,32.60
2017-04-13T02:01:15.692Z,32.41
2017-04-13T02:02:16.297Z,32.41
2017-04-13T02:03:16.911Z,32.70
2017-04-13T02:04:17.510Z,32.60
2017-04-13T02:05:18.116Z,32.50
2017-04-13T02:06:18.717Z,32.60
2017-04-13T02:07:19.314Z,32.60
2017-04-13T02:08:19.919Z,32.60
2017-04-13T02:09:20.515Z,32.71
2017-04-13T02:10:21.114Z,32.70
2017-04-13T02:11:21.714Z,33.17
2017-04-13T02:12:22.330Z,32.60
2017-04-13T02:13:22.934Z,32.79
2017-04-13T02:14:23.530Z,32.79
2017-04-13T02:15:24.129Z,32.79
2017-04-13T02:16:24.728Z,32.89
2017-04-13T02:17:25.349Z,32.79
2017-04-13T02:18:25.963Z,33.27
2017-04-13T02:19:26.562Z,32.98
2017-04-13T02:20:27.161Z,32.98
2017-04-13T02:21:27.761Z,33.07
2017-04-13T02:22:28.361Z,33.07
2017-04-13T02:23:28.976Z,33.46
2017-04-13T02:24:29.572Z,33.07
2017-04-13T02:25:30.176Z,33.17
2017-04-13T02:26:30.774Z,33.27
2017-04-13T02:27:31.377Z,33.17
2017-04-13T02:28:31.978Z,33.27
2017-04-13T02:29:32.571Z,33.46
2017-04-13T02:30:33.177Z,33.27
2017-04-13T02:31:33.773Z,33.46
2017-04-13T02:32:34.377Z,33.36
2017-04-13T02:33:34.993Z,33.36
2017-04-13T02:34:35.641Z,33.84
2017-04-13T02:35:36.241Z,33.36
2017-04-13T02:36:36.840Z,33.56
2017-04-13T02:37:37.455Z,33.94
2017-04-13T02:38:38.069Z,33.84
2017-04-13T02:39:38.783Z,33.84
2017-04-13T02:40:39.383Z,33.65
2017-04-13T02:41:39.989Z,34.22
2017-04-13T02:42:40.589Z,33.84
2017-04-13T02:43:41.185Z,33.65
2017-04-13T02:44:41.785Z,33.56
2017-04-13T02:45:42.383Z,34.03
2017-04-13T02:46:42.982Z,34.01
2017-04-13T02:47:43.582Z,33.75
2017-04-13T02:48:44.180Z,33.84
2017-04-13T02:49:44.780Z,34.01
2017-04-13T02:50:45.379Z,33.64
2017-04-13T02:51:45.978Z,33.73
2017-04-13T02:52:46.576Z,33.92
2017-04-13T02:53:47.174Z,34.11
2017-04-13T02:54:47.774Z,34.01
2017-04-13T02:55:48.373Z,34.11
2017-04-13T02:56:48.987Z,34.30
2017-04-13T02:57:49.602Z,34.11
2017-04-13T02:58:50.201Z,34.20
2017-04-13T02:59:50.801Z,34.30
2017-04-13T03:00:51.413Z,34.59
2017-04-13T03:01:52.013Z,34.49
2017-04-13T03:02:52.610Z,34.59
2017-04-13T03:03:53.208Z,34.49
2017-04-13T03:04:53.808Z,34.78
2017-04-13T03:05:54.407Z,34.88
2017-04-13T03:06:55.020Z,34.97
2017-04-13T03:07:55.623Z,34.97
2017-04-13T03:08:56.237Z,34.78
2017-04-13T03:09:56.835Z,34.78
2017-04-13T03:10:57.434Z,34.88
2017-04-13T03:11:58.031Z,34.78
2017-04-13T03:12:58.634Z,34.49
2017-04-13T03:13:59.248Z,34.40
2017-04-13T03:14:59.846Z,35.35
2017-04-13T03:16:00.458Z,35.16
2017-04-13T03:17:01.065Z,35.16
2017-04-13T03:18:01.659Z,34.88
2017-04-13T03:19:02.260Z,34.97
2017-04-13T03:20:02.864Z,34.97
2017-04-13T03:21:03.461Z,34.97
2017-04-13T03:22:04.058Z,35.16
2017-04-13T03:23:04.656Z,35.26
2017-04-13T03:24:05.255Z,35.35
2017-04-13T03:25:05.852Z,35.45
2017-04-13T03:26:06.450Z,35.45
2017-04-13T03:27:07.049Z,35.45
2017-04-13T03:28:07.647Z,35.45
2017-04-13T03:29:08.251Z,35.43
2017-04-13T03:30:08.870Z,35.53
2017-04-13T03:31:09.489Z,35.53
2017-04-13T03:32:10.084Z,35.62
2017-04-13T03:33:10.688Z,35.72
2017-04-13T03:34:11.289Z,36.10
2017-04-13T03:35:11.904Z,36.10
2017-04-13T03:36:12.506Z,36.19
2017-04-13T03:37:13.126Z,36.29
2017-04-13T03:38:13.721Z,36.19
2017-04-13T03:39:14.326Z,36.29
2017-04-13T03:40:14.921Z,36.19
2017-04-13T03:41:15.519Z,36.19
2017-04-13T03:42:16.134Z,36.29
2017-04-13T03:43:16.730Z,36.10
2017-04-13T03:44:17.328Z,36.39
2017-04-13T03:45:17.928Z,36.10
2017-04-13T03:46:18.527Z,36.29
2017-04-13T03:47:19.146Z,36.48
2017-04-13T03:48:19.742Z,36.39
2017-04-13T03:49:20.341Z,36.48
2017-04-13T03:50:20.953Z,36.39
2017-04-13T03:51:21.553Z,36.58
2017-04-13T03:52:22.151Z,36.48
2017-04-13T03:53:22.753Z,36.58
2017-04-13T03:54:23.351Z,36.77
2017-04-13T03:55:23.948Z,36.77
2017-04-13T03:56:24.546Z,36.68
2017-04-13T03:57:25.151Z,36.85
2017-04-13T03:58:25.750Z,36.96
2017-04-13T03:59:26.346Z,36.77
2017-04-13T04:00:26.945Z,36.87
2017-04-13T04:01:27.550Z,36.94
2017-04-13T04:02:28.152Z,37.13
2017-04-13T04:03:28.766Z,36.85
2017-04-13T04:04:29.369Z,37.23
2017-04-13T04:05:29.964Z,37.51
2017-04-13T04:06:30.566Z,37.42
2017-04-13T04:07:31.169Z,37.42
2017-04-13T04:08:31.763Z,37.32
2017-04-13T04:09:32.368Z,37.42
2017-04-13T04:10:32.968Z,37.61
2017-04-13T04:11:33.565Z,37.51
2017-04-13T04:12:34.162Z,37.90
2017-04-13T04:13:34.761Z,37.80
2017-04-13T04:14:35.374Z,37.90
2017-04-13T04:15:35.978Z,37.99
2017-04-13T04:16:36.581Z,38.09
2017-04-13T04:17:37.174Z,37.90
2017-04-13T04:18:37.778Z,38.18
2017-04-13T04:19:38.380Z,38.37
2017-04-13T04:20:38.993Z,38.28
2017-04-13T04:21:39.593Z,38.37
2017-04-13T04:22:40.190Z,38.18
2017-04-13T04:23:40.788Z,38.18
2017-04-13T04:24:41.388Z,38.47
2017-04-13T04:25:41.987Z,38.37
2017-04-13T04:26:42.589Z,38.37
2017-04-13T04:27:43.184Z,38.56
2017-04-13T04:28:43.784Z,38.66
2017-04-13T04:29:44.384Z,38.47
2017-04-13T04:30:44.983Z,38.66
2017-04-13T04:31:45.587Z,38.56
2017-04-13T04:32:46.185Z,38.56
2017-04-13T04:33:46.783Z,38.56
2017-04-13T04:34:47.382Z,38.85
2017-04-13T04:35:47.982Z,38.66
2017-04-13T04:36:48.582Z,38.85
2017-04-13T04:37:49.179Z,38.66
2017-04-13T04:38:49.778Z,38.64
2017-04-13T04:39:50.386Z,38.95
2017-04-13T04:40:51.001Z,38.93
2017-04-13T04:41:51.616Z,38.83
2017-04-13T04:42:52.215Z,39.02
2017-04-13T04:43:52.816Z,38.95
2017-04-13T04:44:53.418Z,39.02
2017-04-13T04:45:54.018Z,38.93
2017-04-13T04:46:54.617Z,39.14
2017-04-13T04:47:55.220Z,39.04
2017-04-13T04:48:55.843Z,39.31
2017-04-13T04:49:56.442Z,39.32
2017-04-13T04:50:57.042Z,39.88
2017-04-13T04:51:57.644Z,40.00
2017-04-13T04:52:58.244Z,39.90
2017-04-13T04:53:58.852Z,39.81
2017-04-13T04:54:59.452Z,39.61
2017-04-13T04:56:00.069Z,39.52
2017-04-13T04:57:00.670Z,39.52
2017-04-13T04:58:01.271Z,39.52
2017-04-13T04:59:01.873Z,39.52
2017-04-13T05:00:02.474Z,39.52
2017-04-13T05:01:03.079Z,39.42
2017-04-13T05:02:03.677Z,39.61
2017-04-13T05:03:04.279Z,39.90
2017-04-13T05:04:04.879Z,39.52
2017-04-13T05:05:05.480Z,39.71
2017-04-13T05:06:06.081Z,39.61
2017-04-13T05:07:06.686Z,39.71
2017-04-13T05:08:07.284Z,39.71
2017-04-13T05:09:07.890Z,39.90
2017-04-13T05:10:08.490Z,39.90
2017-04-13T05:11:09.088Z,39.81
2017-04-13T05:12:09.692Z,39.81
2017-04-13T05:13:10.293Z,39.81
2017-04-13T05:14:10.897Z,39.71
2017-04-13T05:15:11.514Z,40.00
2017-04-13T05:16:12.117Z,39.71
2017-04-13T05:17:12.734Z,39.81
2017-04-13T05:18:13.338Z,39.81
2017-04-13T05:19:13.939Z,39.71
2017-04-13T05:20:14.541Z,39.73
2017-04-13T05:21:15.160Z,39.73
2017-04-13T05:22:15.767Z,39.64
2017-04-13T05:23:16.367Z,40.11
2017-04-13T05:24:16.971Z,40.40
2017-04-13T05:25:17.575Z,40.30
2017-04-13T05:26:18.180Z,40.13
2017-04-13T05:27:18.782Z,39.84
2017-04-13T05:28:19.409Z,39.77
2017-04-13T05:29:20.009Z,39.58
2017-04-13T05:30:20.619Z,39.31
2017-04-13T05:31:21.223Z,39.03
2017-04-13T05:32:21.826Z,38.76
2017-04-13T05:33:22.438Z,38.78
2017-04-13T05:34:23.044Z,38.39
2017-04-13T05:35:23.651Z,38.32
2017-04-13T05:36:24.256Z,37.84
2017-04-13T05:37:24.862Z,37.47
2017-04-13T05:38:25.485Z,37.18
2017-04-13T05:39:26.092Z,36.82
2017-04-13T05:40:26.700Z,36.44
2017-04-13T05:41:27.314Z,36.36
2017-04-13T05:42:27.926Z,35.88
2017-04-13T05:43:28.552Z,35.78
2017-04-13T05:44:29.163Z,35.78
2017-04-13T05:45:29.768Z,35.78
2017-04-13T05:46:30.378Z,35.59
2017-04-13T05:47:30.984Z,35.49
2017-04-13T05:48:31.593Z,35.69
2017-04-13T05:49:32.201Z,35.21
2017-04-13T05:50:32.811Z,35.22
2017-04-13T05:51:33.426Z,34.94
2017-04-13T05:52:34.033Z,34.65
2017-04-13T05:53:34.644Z,34.36
2017-04-13T05:54:35.250Z,34.27
2017-04-13T05:55:35.858Z,34.27
2017-04-13T05:56:36.469Z,34.36
2017-04-13T05:57:37.077Z,34.15
2017-04-13T05:58:37.688Z,34.55
2017-04-13T05:59:38.297Z,34.36
2017-04-13T06:00:38.928Z,34.28
2017-04-13T06:01:39.536Z,34.01
2017-04-13T06:02:40.145Z,34.30
2017-04-13T06:03:40.755Z,33.93
2017-04-13T06:04:41.380Z,33.26
2017-04-13T06:05:41.990Z,33.08
2017-04-13T06:06:42.602Z,32.90
2017-04-13T06:07:43.212Z,32.43
2017-04-13T06:08:43.825Z,32.15
2017-04-13T06:09:44.442Z,31.77
2017-04-13T06:10:45.051Z,31.78
2017-04-13T06:11:45.661Z,31.30
2017-04-13T06:12:46.288Z,31.01
2017-04-13T06:13:46.899Z,30.45
2017-04-13T06:14:47.528Z,30.26
2017-04-13T06:15:48.144Z,30.35
2017-04-13T06:16:48.753Z,30.43
2017-04-13T06:17:49.364Z,30.05
2017-04-13T06:18:49.982Z,29.86
2017-04-13T06:19:50.591Z,29.87
2017-04-13T06:20:51.205Z,29.87
2017-04-13T06:21:51.817Z,30.07
2017-04-13T06:22:52.444Z,29.87
2017-04-13T06:23:53.057Z,29.60
2017-04-13T06:24:53.682Z,29.21
2017-04-13T06:25:54.310Z,29.42
2017-04-13T06:26:54.923Z,29.22
2017-04-13T06:27:55.535Z,28.64
2017-04-13T06:28:56.146Z,29.03
2017-04-13T06:29:56.758Z,28.64
2017-04-13T06:30:57.370Z,29.02
2017-04-13T06:31:57.983Z,29.21
2017-04-13T06:32:58.594Z,28.63
2017-04-13T06:33:59.206Z,28.73
2017-04-13T06:34:59.826Z,28.42
2017-04-13T06:36:00.450Z,28.72
2017-04-13T06:37:01.061Z,28.61
2017-04-13T06:38:01.721Z,28.51
2017-04-13T06:39:02.337Z,28.80
2017-04-13T06:40:02.943Z,28.88
2017-04-13T06:41:03.554Z,29.25
2017-04-13T06:42:04.174Z,29.06
2017-04-13T06:43:04.793Z,29.44
2017-04-13T06:44:05.407Z,29.35
2017-04-13T06:45:06.015Z,29.14
2017-04-13T06:46:06.621Z,29.52
2017-04-13T06:47:07.229Z,29.32
2017-04-13T06:48:07.854Z,29.51
2017-04-13T06:49:08.467Z,29.61
2017-04-13T06:50:09.072Z,29.88
2017-04-13T06:51:09.680Z,29.88
2017-04-13T06:52:10.287Z,30.07
2017-04-13T06:53:10.896Z,30.17
2017-04-13T06:54:11.503Z,30.36
2017-04-13T06:55:12.115Z,30.25
2017-04-13T06:56:12.720Z,30.44
2017-04-13T06:57:13.341Z,30.44
2017-04-13T06:58:13.969Z,30.54
2017-04-13T06:59:14.574Z,30.62
2017-04-13T07:00:15.186Z,30.81
2017-04-13T07:01:15.794Z,30.71
2017-04-13T07:02:16.421Z,30.90
2017-04-13T07:03:17.044Z,30.71
2017-04-13T07:04:17.656Z,31.10
2017-04-13T07:05:18.267Z,31.48
2017-04-13T07:06:18.872Z,31.48
2017-04-13T07:07:19.556Z,31.58
2017-04-13T07:08:20.195Z,31.38
2017-04-13T07:09:20.826Z,31.29
2017-04-13T07:10:21.484Z,31.58
2017-04-13T07:11:22.090Z,31.67
2017-04-13T07:12:22.703Z,31.67
2017-04-13T07:13:23.312Z,31.67
2017-04-13T07:14:23.982Z,31.66
2017-04-13T07:15:24.691Z,32.04
2017-04-13T07:16:25.311Z,31.85
2017-04-13T07:17:25.917Z,32.04
2017-04-13T07:18:26.529Z,31.95
2017-04-13T07:19:27.135Z,31.85
2017-04-13T07:20:27.738Z,32.42
2017-04-13T07:21:28.350Z,32.23
2017-04-13T07:22:28.957Z,32.14
2017-04-13T07:23:29.560Z,32.33
2017-04-13T07:24:30.168Z,32.62
2017-04-13T07:25:30.787Z,32.33
2017-04-13T07:26:31.395Z,32.23
2017-04-13T07:27:31.998Z,32.33
2017-04-13T07:28:32.670Z,32.33
2017-04-13T07:29:33.273Z,32.81
2017-04-13T07:30:33.878Z,32.42
2017-04-13T07:31:34.486Z,32.62
2017-04-13T07:32:35.090Z,32.62
2017-04-13T07:33:35.695Z,32.71
2017-04-13T07:34:36.325Z,32.62
2017-04-13T07:35:36.985Z,32.71
2017-04-13T07:36:37.591Z,32.62
2017-04-13T07:37:38.195Z,32.70
2017-04-13T07:38:38.807Z,32.79
2017-04-13T07:39:39.476Z,32.71
2017-04-13T07:40:40.158Z,32.89
2017-04-13T07:41:40.789Z,33.17
2017-04-13T07:42:41.392Z,32.98
2017-04-13T07:43:42.004Z,33.08
2017-04-13T07:44:42.650Z,33.58
2017-04-13T07:45:43.264Z,33.27
2017-04-13T07:46:43.948Z,33.17
2017-04-13T07:47:44.552Z,33.37
2017-04-13T07:48:45.195Z,33.27
2017-04-13T07:49:45.868Z,33.17
2017-04-13T07:50:46.471Z,33.37
2017-04-13T07:51:47.077Z,33.37
2017-04-13T07:52:47.683Z,33.75
2017-04-13T07:55:04.075Z,33.56
2017-04-13T07:56:04.930Z,33.65
2017-04-13T07:57:05.786Z,33.75
2017-04-13T07:58:06.710Z,33.94
2017-04-13T07:59:07.566Z,34.23
2017-04-13T08:00:08.234Z,33.94
2017-04-13T08:01:08.841Z,33.84
2017-04-13T08:02:09.744Z,33.75
2017-04-13T08:03:10.351Z,34.33
2017-04-13T08:04:11.063Z,33.84
2017-04-13T08:05:12.285Z,33.75
2017-04-13T08:06:12.903Z,33.65
2017-04-13T08:07:13.635Z,34.33
2017-04-13T08:08:14.258Z,33.56
2017-04-13T08:09:14.862Z,33.84
2017-04-13T08:10:15.480Z,34.14
2017-04-13T08:11:16.085Z,34.14
2017-04-13T08:12:16.782Z,34.23
2017-04-13T08:13:17.393Z,33.84
2017-04-13T08:14:18.020Z,33.75
2017-04-13T08:15:18.623Z,34.23
2017-04-13T08:16:19.230Z,34.23
2017-04-13T08:17:19.841Z,34.04
2017-04-13T08:18:20.444Z,34.23
2017-04-13T08:19:21.052Z,34.42
2017-04-13T08:20:21.659Z,34.52
2017-04-13T08:21:22.272Z,34.23
2017-04-13T08:22:22.874Z,34.71
2017-04-13T08:23:23.485Z,34.71
2017-04-13T08:24:24.089Z,35.00
2017-04-13T08:25:24.722Z,34.90
2017-04-13T08:26:25.320Z,35.00
2017-04-13T08:27:25.948Z,34.90
2017-04-13T08:28:26.570Z,34.81
2017-04-13T08:29:27.182Z,34.71
2017-04-13T08:30:27.792Z,34.63
2017-04-13T08:31:28.403Z,34.63
2017-04-13T08:32:29.005Z,34.63
2017-04-13T08:33:29.660Z,34.92
2017-04-13T08:34:30.224Z,34.63
2017-04-13T08:35:30.851Z,34.73
2017-04-13T08:36:31.455Z,34.73
2017-04-13T08:37:32.064Z,34.44
2017-04-13T08:38:32.687Z,34.25
2017-04-13T08:39:33.293Z,34.34
2017-04-13T08:40:33.910Z,34.44
2017-04-13T08:41:34.534Z,34.44
2017-04-13T08:42:35.145Z,34.25
2017-04-13T08:43:35.755Z,34.55
2017-04-13T08:44:36.377Z,34.34
2017-04-13T08:45:36.999Z,34.27
2017-04-13T08:46:37.607Z,34.36
2017-04-13T08:47:38.223Z,33.78
2017-04-13T08:48:38.826Z,33.88
2017-04-13T08:49:39.433Z,34.07
2017-04-13T08:50:40.040Z,34.07
2017-04-13T08:51:40.662Z,34.17
2017-04-13T08:52:41.258Z,33.70
2017-04-13T08:53:41.871Z,33.80
2017-04-13T08:54:42.476Z,34.09
2017-04-13T08:55:43.085Z,33.99
2017-04-13T08:56:43.734Z,33.99
2017-04-13T08:57:44.342Z,33.80
2017-04-13T08:58:44.951Z,34.09
2017-04-13T08:59:45.560Z,33.80
2017-04-13T09:00:46.192Z,33.90
2017-04-13T09:01:46.816Z,33.99
2017-04-13T09:02:47.423Z,34.09
2017-04-13T09:03:48.029Z,33.80
2017-04-13T09:04:48.686Z,33.99
2017-04-13T09:05:49.246Z,34.09
2017-04-13T09:06:49.851Z,33.80
2017-04-13T09:07:50.484Z,33.61
2017-04-13T09:08:51.091Z,34.11
2017-04-13T09:09:51.719Z,33.53
2017-04-13T09:10:52.329Z,33.44
2017-04-13T09:11:52.939Z,33.44
2017-04-13T09:12:53.551Z,33.91
2017-04-13T09:13:54.156Z,33.62
2017-04-13T09:14:54.765Z,33.53
2017-04-13T09:15:55.374Z,33.44
2017-04-13T09:16:55.983Z,33.44
2017-04-13T09:17:56.607Z,33.34
2017-04-13T09:18:57.219Z,33.53
2017-04-13T09:19:57.822Z,33.53
2017-04-13T09:20:58.432Z,33.44
2017-04-13T09:21:59.041Z,33.64
2017-04-13T09:22:59.664Z,33.74
2017-04-13T09:24:00.272Z,33.45
2017-04-13T09:25:00.888Z,33.18
2017-04-13T09:26:01.495Z,32.98
2017-04-13T09:27:02.104Z,32.81
2017-04-13T09:28:02.729Z,32.34
2017-04-13T09:29:03.339Z,31.98
2017-04-13T09:30:03.949Z,31.60
2017-04-13T09:31:04.561Z,31.41
2017-04-13T09:32:05.172Z,31.43
2017-04-13T09:33:05.784Z,30.38
2017-04-13T09:34:06.397Z,30.01
2017-04-13T09:35:07.017Z,29.93
2017-04-13T09:36:07.644Z,29.28
2017-04-13T09:37:08.259Z,28.44
2017-04-13T09:38:08.893Z,28.66
2017-04-13T09:39:09.504Z,27.72
2017-04-13T09:40:10.124Z,26.67
2017-04-13T09:41:10.736Z,26.00
2017-04-13T09:42:11.352Z,26.31
2017-04-13T09:43:11.971Z,25.73
2017-04-13T09:44:12.610Z,25.64
2017-04-13T09:45:13.223Z,25.16
2017-04-13T09:46:13.842Z,25.16
2017-04-13T09:47:14.466Z,24.88
2017-04-13T09:48:15.081Z,25.05
2017-04-13T09:49:15.907Z,24.87
2017-04-13T09:50:16.524Z,24.95
2017-04-13T09:51:17.157Z,24.95
2017-04-13T09:52:17.775Z,24.95
2017-04-13T09:53:18.392Z,25.04
2017-04-13T09:54:19.008Z,24.74
2017-04-13T09:55:19.635Z,25.12
2017-04-13T09:56:20.301Z,25.71
2017-04-13T09:57:20.874Z,25.13
2017-04-13T09:58:21.492Z,24.74
2017-04-13T09:59:22.110Z,24.65
2017-04-13T10:00:22.735Z,24.65
2017-04-13T10:01:23.349Z,24.06
2017-04-13T10:02:23.968Z,24.85
2017-04-13T10:03:24.593Z,24.28
2017-04-13T10:04:25.228Z,24.10
2017-04-13T10:05:25.850Z,23.62
2017-04-13T10:06:26.468Z,23.24
2017-04-13T10:07:27.088Z,23.05
2017-04-13T10:08:27.709Z,22.67
2017-04-13T10:09:28.330Z,22.77
2017-04-13T10:10:28.950Z,22.39
2017-04-13T10:11:29.569Z,22.20
2017-04-13T10:12:30.190Z,21.82
2017-04-13T10:13:30.826Z,21.71
2017-04-13T10:14:31.451Z,21.42
2017-04-13T10:15:32.071Z,21.40
2017-04-13T10:16:32.689Z,22.16
2017-04-13T10:17:33.310Z,22.16
2017-04-13T10:18:33.938Z,22.26
2017-04-13T10:19:34.554Z,22.27
2017-04-13T10:20:35.180Z,22.17
2017-04-13T10:21:35.797Z,21.98
2017-04-13T10:22:36.417Z,21.88
2017-04-13T10:23:37.058Z,22.07
2017-04-13T10:24:37.675Z,21.78
2017-04-13T10:25:38.294Z,22.16
2017-04-13T10:26:38.921Z,22.16
2017-04-13T10:27:39.540Z,22.24
2017-04-13T10:28:40.160Z,22.42
2017-04-13T10:29:40.778Z,22.91
2017-04-13T10:30:41.402Z,22.71
2017-04-13T10:31:42.018Z,22.89
2017-04-13T10:32:42.656Z,22.88
2017-04-13T10:33:43.287Z,23.26
2017-04-13T10:34:43.915Z,23.25
2017-04-13T10:35:44.522Z,23.54
2017-04-13T10:36:45.137Z,23.53
2017-04-13T10:37:45.756Z,24.01
2017-04-13T10:38:46.374Z,23.81
2017-04-13T10:39:46.989Z,23.99
2017-04-13T10:40:47.610Z,24.27
2017-04-13T10:41:48.220Z,24.66
2017-04-13T10:42:48.835Z,25.03
2017-04-13T10:43:49.453Z,25.32
2017-04-13T10:44:50.066Z,25.02
2017-04-13T10:45:50.680Z,25.31
2017-04-13T10:46:51.309Z,25.29
2017-04-13T10:47:51.923Z,25.29
2017-04-13T10:48:52.537Z,25.28
2017-04-13T10:49:53.149Z,25.57
2017-04-13T10:50:53.764Z,25.96
2017-04-13T10:51:54.384Z,25.95
2017-04-13T10:52:54.993Z,26.14
2017-04-13T10:53:55.606Z,26.14
2017-04-13T10:54:56.219Z,26.04
2017-04-13T10:55:56.830Z,26.33
2017-04-13T10:56:57.463Z,26.61
2017-04-13T10:57:58.071Z,26.32
2017-04-13T10:58:58.689Z,26.22
2017-04-13T10:59:59.300Z,26.03
2017-04-13T11:00:59.911Z,26.61
2017-04-13T11:02:00.523Z,26.70
2017-04-13T11:03:01.135Z,26.69
2017-04-13T11:04:01.766Z,26.79
2017-04-13T11:05:02.375Z,27.37
2017-04-13T11:06:03.002Z,26.89
2017-04-13T11:07:03.612Z,27.46
2017-04-13T11:08:04.229Z,27.08
2017-04-13T11:09:04.842Z,27.27
2017-04-13T11:10:05.468Z,27.27
2017-04-13T11:11:06.080Z,27.85
2017-04-13T11:12:06.690Z,27.35
2017-04-13T11:13:07.302Z,27.17
2017-04-13T11:14:07.912Z,27.93
2017-04-13T11:15:08.533Z,27.16
2017-04-13T11:16:09.139Z,28.03
2017-04-13T11:17:09.747Z,27.45
2017-04-13T11:18:10.400Z,27.64
2017-04-13T11:19:10.969Z,28.31
2017-04-13T11:20:11.579Z,27.72
2017-04-13T11:21:12.193Z,28.30
2017-04-13T11:22:12.801Z,28.30
2017-04-13T11:23:13.426Z,28.40
2017-04-13T11:24:14.037Z,28.69
2017-04-13T11:25:14.646Z,28.19
2017-04-13T11:26:15.256Z,28.77
2017-04-13T11:27:15.872Z,28.38
2017-04-13T11:28:16.482Z,28.77
2017-04-13T11:29:17.094Z,28.19
2017-04-13T11:30:17.700Z,28.38
2017-04-13T11:31:18.309Z,28.67
2017-04-13T11:32:18.925Z,28.96
2017-04-13T11:33:19.544Z,28.38
2017-04-13T11:34:20.154Z,28.67
2017-04-13T11:35:20.764Z,28.19
2017-04-13T11:36:21.374Z,28.29
2017-04-13T11:37:21.981Z,28.66
2017-04-13T11:38:22.590Z,28.56
2017-04-13T11:39:23.199Z,28.85
2017-04-13T11:40:23.810Z,28.56
2017-04-13T11:41:24.419Z,28.37
2017-04-13T11:42:25.033Z,28.37
2017-04-13T11:43:25.638Z,28.47
2017-04-13T11:44:26.248Z,28.85
2017-04-13T11:45:26.857Z,28.37
2017-04-13T11:46:27.469Z,28.47
2017-04-13T11:47:28.091Z,28.47
2017-04-13T11:48:28.702Z,28.47
2017-04-13T11:49:29.314Z,28.37
2017-04-13T11:50:29.922Z,28.27
2017-04-13T11:51:30.545Z,28.27
2017-04-13T11:52:31.152Z,28.66
2017-04-13T11:53:31.762Z,28.85
2017-04-13T11:54:32.373Z,28.75
2017-04-13T11:55:32.979Z,28.27
2017-04-13T11:56:33.592Z,28.37
2017-04-13T11:57:34.222Z,28.27
2017-04-13T11:58:34.825Z,28.47
2017-04-13T11:59:35.435Z,28.75
2017-04-13T12:00:36.041Z,28.85
2017-04-13T12:01:36.649Z,28.37
2017-04-13T12:02:37.256Z,28.27
2017-04-13T12:03:37.864Z,28.66
2017-04-13T12:04:38.474Z,28.37
2017-04-13T12:05:39.098Z,28.27
2017-04-13T12:06:39.713Z,28.85
2017-04-13T12:07:40.322Z,28.85
2017-04-13T12:08:40.928Z,28.85
2017-04-13T12:09:41.535Z,28.95
2017-04-13T12:10:42.141Z,29.04
2017-04-13T12:11:42.769Z,29.24
2017-04-13T12:12:43.373Z,29.43
2017-04-13T12:13:43.989Z,28.95
2017-04-13T12:14:44.613Z,29.04
2017-04-13T12:15:45.221Z,29.14
2017-04-13T12:16:45.831Z,28.95
2017-04-13T12:17:46.447Z,29.43
2017-04-13T12:18:47.050Z,29.24
2017-04-13T12:19:47.673Z,28.64
2017-04-13T12:20:48.281Z,28.93
2017-04-13T12:21:48.893Z,29.32
2017-04-13T12:22:49.497Z,28.93
2017-04-13T12:23:50.104Z,28.84
2017-04-13T12:24:50.713Z,28.93
2017-04-13T12:25:51.318Z,28.93
2017-04-13T12:26:51.932Z,28.84
2017-04-13T12:27:52.537Z,29.03
2017-04-13T12:28:53.144Z,28.93
2017-04-13T12:29:53.768Z,29.03
2017-04-13T12:30:54.376Z,28.93
2017-04-13T12:31:54.986Z,28.93
2017-04-13T12:32:55.594Z,28.93
2017-04-13T12:33:56.207Z,29.03
2017-04-13T12:34:56.818Z,28.93
2017-04-13T12:35:57.432Z,28.93
2017-04-13T12:36:58.050Z,29.32
2017-04-13T12:37:58.680Z,28.93
2017-04-13T12:38:59.285Z,29.41
2017-04-13T12:39:59.908Z,28.95
2017-04-13T12:41:00.516Z,28.95
2017-04-13T12:42:01.139Z,29.03
2017-04-13T12:43:01.751Z,29.03
2017-04-13T12:44:02.360Z,28.85
2017-04-13T12:45:02.971Z,29.04
2017-04-13T12:46:03.597Z,29.04
2017-04-13T12:47:04.217Z,28.85
2017-04-13T12:48:04.825Z,29.04
2017-04-13T12:49:05.432Z,28.95
2017-04-13T12:50:06.039Z,28.85
2017-04-13T12:51:06.648Z,29.04
2017-04-13T12:52:07.256Z,29.33
2017-04-13T12:53:07.863Z,28.85
2017-04-13T12:54:08.471Z,28.85
2017-04-13T12:55:09.080Z,29.33
2017-04-13T12:56:09.689Z,28.47
2017-04-13T12:57:10.298Z,29.33
2017-04-13T12:58:10.909Z,28.47
2017-04-13T12:59:11.536Z,28.56
2017-04-13T13:00:12.142Z,28.55
2017-04-13T13:01:12.750Z,28.37